Time;durP1;ratioP1;P1;durP2;ratioP2;P2;SDS_P1;SDS_P2;PMS_P1;PMS_P2;Temp;Humidity;BMP_temperature;BMP_pressure;BME280_temperature;BME280_humidity;BME280_pressure;Samples;Min_cycle;Max_cycle;Signal;HPM_P1;HPM_P2
2021/05/15 00:02:21;;;;;;;14.38;7.93;;;;;;;12.07;67.87;99481.78;4899336;28;96836;-82
2021/05/15 00:04:47;;;;;;;11.40;7.47;;;;;;;11.92;67.98;99480.81;4901464;28;96971;-81
2021/05/15 00:07:12;;;;;;;14.93;8.68;;;;;;;12.00;67.79;99479.50;4899748;28;98055;-81
2021/05/15 00:09:38;;;;;;;17.00;9.50;;;;;;;12.02;67.85;99471.53;4917174;28;100226;-81
2021/05/15 00:12:04;;;;;;;23.13;9.45;;;;;;;12.03;67.49;99475.00;4885199;28;97584;-81
2021/05/15 00:14:31;;;;;;;24.27;11.10;;;;;;;12.04;67.78;99464.38;4885376;28;96874;-82
2021/05/15 00:16:57;;;;;;;22.40;9.75;;;;;;;12.04;67.30;99476.69;4900764;28;99264;-80
2021/05/15 00:19:22;;;;;;;16.02;9.82;;;;;;;11.98;67.85;99476.13;4933910;28;97396;-81
2021/05/15 00:21:48;;;;;;;19.85;12.18;;;;;;;11.98;67.85;99475.22;4900787;28;96595;-81
2021/05/15 00:24:13;;;;;;;19.13;11.32;;;;;;;11.96;67.70;99477.13;4884475;28;96966;-81
2021/05/15 00:26:39;;;;;;;19.35;8.48;;;;;;;11.96;67.92;99471.84;4900419;28;101343;-81
2021/05/15 00:29:06;;;;;;;14.77;9.10;;;;;;;11.97;67.75;99477.03;4900582;28;96969;-81
2021/05/15 00:31:32;;;;;;;12.45;8.32;;;;;;;11.94;67.66;99479.81;4904586;28;96590;-82
2021/05/15 00:33:57;;;;;;;14.27;8.63;;;;;;;11.95;67.46;99480.66;4888985;28;97144;-81
2021/05/15 00:36:23;;;;;;;17.45;8.52;;;;;;;11.92;67.39;99484.28;4903482;28;100739;-80
2021/05/15 00:38:48;;;;;;;17.05;9.57;;;;;;;11.97;67.46;99481.44;4888939;28;99919;-81
2021/05/15 00:41:15;;;;;;;19.10;9.35;;;;;;;11.91;67.72;99479.13;4886982;28;96666;-81
2021/05/15 00:43:59;;;;;;;15.50;9.20;;;;;;;11.89;67.70;99486.25;4888269;28;97167;-81
2021/05/15 00:46:28;;;;;;;18.90;10.63;;;;;;;11.87;67.37;99485.47;4888390;28;100333;-81
2021/05/15 00:48:53;;;;;;;28.17;11.20;;;;;;;11.86;67.96;99489.03;4887626;28;101014;-81
2021/05/15 00:51:22;;;;;;;24.10;11.95;;;;;;;11.89;67.70;99483.63;4902448;28;96665;-81
2021/05/15 00:53:47;;;;;;;22.13;11.80;;;;;;;11.83;67.62;99487.38;4887633;28;96611;-81
2021/05/15 00:56:13;;;;;;;22.38;10.30;;;;;;;11.78;67.59;99481.53;4904440;28;97150;-79
2021/05/15 00:58:40;;;;;;;21.33;10.32;;;;;;;11.78;67.92;99485.00;4889191;28;101717;-79
2021/05/15 01:01:06;;;;;;;20.70;10.75;;;;;;;11.84;67.27;99483.84;4907114;28;96531;-79
2021/05/15 01:03:31;;;;;;;22.08;11.48;;;;;;;11.89;67.70;99492.34;4931775;28;96957;-80
2021/05/15 01:05:57;;;;;;;21.42;10.85;;;;;;;11.93;67.04;99495.69;4914831;28;99954;-80
2021/05/15 01:08:23;;;;;;;19.25;10.48;;;;;;;11.88;67.28;99508.22;4927566;28;96634;-80
2021/05/15 01:10:49;;;;;;;21.63;11.18;;;;;;;11.71;68.14;99503.81;4912218;28;96520;-80
2021/05/15 01:13:14;;;;;;;35.97;16.88;;;;;;;11.68;67.57;99501.34;4897104;28;96816;-80
2021/05/15 01:15:40;;;;;;;27.88;14.07;;;;;;;11.70;67.75;99502.97;4909481;28;101680;-80
2021/05/15 01:18:05;;;;;;;26.10;13.68;;;;;;;11.62;67.76;99507.75;4910653;28;100511;-79
2021/05/15 01:20:32;;;;;;;30.05;14.40;;;;;;;11.59;67.81;99507.91;4926713;28;96575;-80
2021/05/15 01:22:59;;;;;;;31.38;12.98;;;;;;;11.63;67.71;99498.94;4893742;28;96962;-80
2021/05/15 01:25:25;;;;;;;26.70;11.18;;;;;;;11.57;67.93;99501.88;4893022;28;100541;-80
2021/05/15 01:27:51;;;;;;;19.75;9.73;;;;;;;11.58;67.96;99506.22;4910345;28;101989;-80
2021/05/15 01:30:18;;;;;;;14.32;8.65;;;;;;;11.62;67.42;99514.78;4910434;28;96815;-79
2021/05/15 01:32:45;;;;;;;23.67;10.77;;;;;;;11.48;68.08;99512.88;4910283;28;97017;-80
2021/05/15 01:35:12;;;;;;;21.35;9.38;;;;;;;11.66;67.71;99509.28;4892759;28;101054;-80
2021/05/15 01:37:38;;;;;;;19.60;9.38;;;;;;;11.47;68.08;99514.66;4924671;28;97751;-80
2021/05/15 01:40:06;;;;;;;13.25;8.93;;;;;;;11.46;68.18;99514.69;4906846;28;96626;-79
2021/05/15 01:42:32;;;;;;;18.70;10.35;;;;;;;11.42;68.79;99515.81;4891772;28;96606;-80
2021/05/15 01:44:58;;;;;;;17.15;9.63;;;;;;;11.40;68.22;99515.88;4906947;28;97461;-80
2021/05/15 01:47:24;;;;;;;17.38;8.02;;;;;;;11.46;68.04;99515.59;4906519;28;96565;-80
2021/05/15 01:49:50;;;;;;;13.77;7.88;;;;;;;11.36;68.51;99511.69;4907149;28;96578;-80
2021/05/15 01:52:16;;;;;;;14.43;8.75;;;;;;;11.42;68.63;99515.81;4889837;28;97004;-80
2021/05/15 01:54:42;;;;;;;16.27;8.68;;;;;;;11.30;68.71;99507.59;4906302;28;97495;-80
2021/05/15 01:57:08;;;;;;;21.00;10.25;;;;;;;11.35;68.75;99517.06;4907516;28;96621;-79
2021/05/15 01:59:34;;;;;;;25.23;11.65;;;;;;;11.42;68.24;99518.44;4907627;28;97312;-80
2021/05/15 02:02:00;;;;;;;22.10;10.65;;;;;;;11.40;68.10;99520.28;4909341;28;97293;-80
2021/05/15 02:04:25;;;;;;;22.80;11.05;;;;;;;11.35;68.15;99515.25;4895905;28;101826;-80
2021/05/15 02:06:51;;;;;;;20.65;10.05;;;;;;;11.30;68.61;99517.25;4890780;28;101332;-80
2021/05/15 02:09:17;;;;;;;21.48;10.23;;;;;;;11.37;68.13;99515.16;4889833;28;96914;-79
2021/05/15 02:11:43;;;;;;;18.55;9.95;;;;;;;11.36;68.05;99509.06;4923140;28;96915;-80
2021/05/15 02:14:08;;;;;;;20.52;10.80;;;;;;;11.35;67.93;99514.41;4889772;28;100536;-80
2021/05/15 02:16:34;;;;;;;21.63;10.27;;;;;;;11.34;68.19;99516.16;4909488;28;97460;-80
2021/05/15 02:19:00;;;;;;;16.85;9.85;;;;;;;11.28;67.85;99505.97;4906654;28;96501;-80
2021/05/15 02:21:25;;;;;;;19.67;10.07;;;;;;;11.27;68.03;99505.13;4890862;28;96710;-80
2021/05/15 02:23:51;;;;;;;16.45;9.20;;;;;;;11.26;68.07;99511.31;4924603;28;100670;-81
2021/05/15 02:26:16;;;;;;;18.48;9.75;;;;;;;11.26;67.82;99513.94;4892848;28;100295;-80
2021/05/15 02:28:42;;;;;;;17.50;9.10;;;;;;;11.27;67.55;99513.00;4941980;28;96755;-80
2021/05/15 02:31:08;;;;;;;11.32;8.45;;;;;;;11.21;68.02;99504.59;4893772;28;96822;-79
2021/05/15 02:33:33;;;;;;;18.90;8.68;;;;;;;11.21;67.78;99513.31;4891256;28;100893;-80
2021/05/15 02:35:59;;;;;;;12.85;8.57;;;;;;;11.22;67.78;99506.28;4891854;28;101709;-80
2021/05/15 02:38:24;;;;;;;12.55;8.27;;;;;;;11.14;68.15;99505.81;4907329;28;97625;-80
2021/05/15 02:40:53;;;;;;;17.98;8.35;;;;;;;11.16;67.97;99506.59;4907923;28;97497;-80
2021/05/15 02:43:20;;;;;;;10.95;7.22;;;;;;;11.19;67.57;99502.03;4907997;28;101871;-79
2021/05/15 02:45:45;;;;;;;14.48;7.93;;;;;;;11.08;68.13;99505.19;4892717;28;101393;-80
2021/05/15 02:48:16;;;;;;;11.38;8.00;;;;;;;11.08;67.97;99488.56;4910400;28;96854;-79
2021/05/15 02:50:46;;;;;;;14.60;8.10;;;;;;;11.09;68.28;99493.75;4913474;28;96813;-80
2021/05/15 02:53:12;;;;;;;18.38;8.70;;;;;;;11.10;68.09;99494.59;4914008;28;97155;-80
2021/05/15 02:55:38;;;;;;;13.02;8.18;;;;;;;11.09;68.07;99492.91;4916103;28;99359;-80
2021/05/15 02:58:03;;;;;;;14.80;8.25;;;;;;;11.07;67.76;99502.63;4915138;28;96770;-80
2021/05/15 03:00:29;;;;;;;12.32;7.57;;;;;;;11.06;68.05;99501.78;4890964;28;97323;-81
2021/05/15 03:02:58;;;;;;;10.00;6.70;;;;;;;11.08;68.02;99510.47;4907124;28;97524;-80
2021/05/15 03:05:26;;;;;;;10.75;7.85;;;;;;;11.01;67.86;99498.53;4907440;28;97569;-80
2021/05/15 03:07:52;;;;;;;12.30;7.90;;;;;;;11.01;67.99;99501.16;4891469;28;96620;-80
2021/05/15 03:10:20;;;;;;;17.42;8.90;;;;;;;10.98;68.04;99510.97;4906936;28;96853;-80
2021/05/15 03:12:45;;;;;;;12.90;7.93;;;;;;;11.04;67.75;99505.41;4907371;28;97415;-81
2021/05/15 03:15:12;;;;;;;11.70;7.50;;;;;;;10.96;68.00;99508.41;4907588;28;99483;-80
2021/05/15 03:17:39;;;;;;;13.32;8.50;;;;;;;11.01;67.58;99522.16;4890001;28;96557;-80
2021/05/15 03:20:07;;;;;;;12.40;8.57;;;;;;;10.99;67.50;99513.50;4891386;28;96775;-80
2021/05/15 03:22:33;;;;;;;14.20;9.23;;;;;;;10.96;68.01;99518.06;4890833;28;99789;-79
2021/05/15 03:24:58;;;;;;;9.65;7.38;;;;;;;10.91;67.97;99518.28;4891692;28;100952;-80
2021/05/15 03:27:24;;;;;;;16.77;8.45;;;;;;;11.01;67.72;99522.16;4905839;28;97787;-79
2021/05/15 03:29:49;;;;;;;12.43;7.45;;;;;;;10.92;68.17;99524.41;4911037;28;96936;-80
2021/05/15 03:32:15;;;;;;;12.75;7.70;;;;;;;10.93;67.81;99521.69;4925272;28;101693;-81
2021/05/15 03:34:41;;;;;;;14.20;8.65;;;;;;;10.93;68.27;99505.91;4896179;28;100173;-79
2021/05/15 03:37:06;;;;;;;12.85;8.13;;;;;;;10.94;68.21;99519.91;4906855;28;96781;-80
2021/05/15 03:39:32;;;;;;;12.13;8.00;;;;;;;10.94;68.29;99526.03;4907167;28;97105;-80
2021/05/15 03:41:57;;;;;;;12.65;8.00;;;;;;;10.92;68.52;99517.34;4907912;28;100074;-80
2021/05/15 03:44:23;;;;;;;15.10;8.63;;;;;;;10.96;68.08;99523.31;4909487;28;97330;-80
2021/05/15 03:46:48;;;;;;;19.40;8.20;;;;;;;10.95;68.10;99522.47;4892801;28;97202;-80
2021/05/15 03:49:15;;;;;;;13.32;8.18;;;;;;;10.97;68.25;99523.25;4922596;28;96835;-79
2021/05/15 03:51:41;;;;;;;15.00;7.80;;;;;;;11.01;68.16;99526.56;4906215;28;100610;-80
2021/05/15 03:54:07;;;;;;;12.65;7.70;;;;;;;10.99;68.31;99518.75;4890345;28;101329;-80
2021/05/15 03:56:32;;;;;;;11.18;7.85;;;;;;;11.03;68.24;99522.94;4905809;28;96738;-80
2021/05/15 03:58:59;;;;;;;15.55;8.73;;;;;;;11.07;67.96;99524.50;4890427;28;96729;-80
2021/05/15 04:01:24;;;;;;;16.90;10.45;;;;;;;11.09;68.29;99530.53;4888829;28;99946;-80
2021/05/15 04:03:50;;;;;;;13.85;8.52;;;;;;;11.09;68.49;99527.06;4890333;28;101101;-80
2021/05/15 04:06:16;;;;;;;15.15;8.27;;;;;;;11.18;68.24;99531.00;4904656;28;96806;-79
2021/05/15 04:08:42;;;;;;;18.38;8.98;;;;;;;11.17;68.55;99532.78;4891230;28;96877;-80
2021/05/15 04:11:08;;;;;;;12.80;9.02;;;;;;;11.27;68.23;99531.41;4889874;28;101591;-80
2021/05/15 04:18:54;;;;;;;22.23;9.40;;;;;;;11.46;68.14;99533.97;4876360;28;97172;-80
2021/05/15 04:21:20;;;;;;;21.30;8.98;;;;;;;11.66;67.79;99538.19;4906457;28;97479;-80
2021/05/15 04:23:45;;;;;;;16.85;9.40;;;;;;;11.87;66.29;99530.16;4890454;28;100258;-80
2021/05/15 04:26:11;;;;;;;16.17;9.38;;;;;;;11.71;67.10;99537.97;4890700;28;96824;-81
2021/05/15 04:28:37;;;;;;;13.10;8.57;;;;;;;11.81;66.87;99533.97;4889697;28;97356;-80
2021/05/15 04:31:03;;;;;;;21.60;9.43;;;;;;;11.95;66.81;99539.38;4890672;28;99310;-80
2021/05/15 04:33:29;;;;;;;13.52;8.10;;;;;;;12.09;65.81;99538.66;4922889;28;97874;-80
2021/05/15 04:35:55;;;;;;;13.93;9.27;;;;;;;12.08;66.17;99541.38;4906220;28;96500;-80
2021/05/15 04:38:21;;;;;;;11.88;9.23;;;;;;;12.21;65.81;99543.25;4887636;28;96957;-80
2021/05/15 04:40:47;;;;;;;20.98;9.32;;;;;;;12.41;65.73;99538.72;4902323;28;97846;-81
2021/05/15 04:43:14;;;;;;;16.52;8.52;;;;;;;12.53;65.66;99545.09;4887388;28;100316;-80
2021/05/15 04:45:41;;;;;;;12.65;8.52;;;;;;;12.64;65.21;99537.47;4886151;28;96732;-81
2021/05/15 04:48:07;;;;;;;14.52;7.78;;;;;;;12.88;64.59;99544.00;4917570;28;96781;-82
2021/05/15 04:50:33;;;;;;;13.75;8.77;;;;;;;13.19;63.47;99544.94;4884360;28;100806;-82
2021/05/15 04:52:58;;;;;;;11.30;8.90;;;;;;;13.44;63.23;99552.31;4934047;28;97159;-82
2021/05/15 04:55:24;;;;;;;14.70;8.10;;;;;;;13.61;62.51;99542.56;4899248;28;96631;-82
2021/05/15 04:57:50;;;;;;;11.43;7.55;;;;;;;13.59;62.43;99553.22;4900355;28;96974;-82
2021/05/15 05:00:16;;;;;;;19.27;8.77;;;;;;;13.79;62.31;99550.25;4882108;28;101317;-81
2021/05/15 05:02:41;;;;;;;11.88;7.95;;;;;;;13.82;62.00;99555.34;4897438;28;100176;-82
2021/05/15 05:05:08;;;;;;;11.57;7.25;;;;;;;14.03;61.33;99555.84;4897487;28;97883;-82
2021/05/15 05:07:33;;;;;;;12.27;7.63;;;;;;;14.17;61.32;99556.78;4912313;28;97343;-82
2021/05/15 05:09:59;;;;;;;13.25;8.55;;;;;;;14.34;60.20;99556.63;4897884;28;99989;-82
2021/05/15 05:12:25;;;;;;;11.88;7.13;;;;;;;14.67;60.56;99558.13;4897098;28;101393;-82
2021/05/15 05:14:50;;;;;;;12.82;6.93;;;;;;;14.89;60.14;99549.66;4897090;28;97169;-82
2021/05/15 05:17:16;;;;;;;12.23;7.07;;;;;;;15.16;60.17;99549.69;4897857;28;96894;-81
2021/05/15 05:19:41;;;;;;;10.70;7.35;;;;;;;15.52;58.90;99562.28;4881360;28;101818;-82
2021/05/15 05:22:07;;;;;;;11.95;7.50;;;;;;;15.85;58.15;99563.63;4914135;28;97392;-82
2021/05/15 05:24:33;;;;;;;8.35;6.70;;;;;;;16.21;57.34;99565.56;4881528;28;97044;-82
2021/05/15 05:27:01;;;;;;;10.18;6.60;;;;;;;16.49;56.29;99559.22;4881389;28;97123;-82
2021/05/15 05:29:27;;;;;;;9.30;6.15;;;;;;;16.94;54.93;99554.25;4895952;28;100199;-82
2021/05/15 05:31:53;;;;;;;14.65;7.18;;;;;;;17.36;53.74;99560.00;4897175;28;101539;-81
2021/05/15 05:34:19;;;;;;;6.97;5.28;;;;;;;17.97;53.21;99564.34;4896543;28;96941;-81
2021/05/15 05:36:47;;;;;;;7.78;5.85;;;;;;;18.50;51.25;99562.84;4881010;28;96795;-80
2021/05/15 05:39:16;;;;;;;9.05;5.65;;;;;;;18.99;50.66;99560.75;4897779;28;100693;-81
2021/05/15 05:41:41;;;;;;;7.75;5.15;;;;;;;19.43;50.00;99557.13;4915972;28;98397;-81
2021/05/15 05:44:07;;;;;;;8.23;4.88;;;;;;;19.76;48.78;99563.28;4900699;28;97086;-82
2021/05/15 05:46:33;;;;;;;6.82;4.60;;;;;;;19.98;47.86;99559.63;4900244;28;97046;-83
2021/05/15 05:48:59;;;;;;;9.63;5.10;;;;;;;20.43;46.71;99558.47;4884062;28;101944;-83
2021/05/15 05:51:24;;;;;;;7.50;5.57;;;;;;;20.69;46.36;99556.22;4899275;28;101525;-82
2021/05/15 05:53:50;;;;;;;7.45;4.65;;;;;;;20.93;45.30;99563.88;4899770;28;97699;-83
2021/05/15 05:56:17;;;;;;;8.65;5.00;;;;;;;21.29;44.89;99548.19;4883581;28;96935;-81
2021/05/15 05:58:45;;;;;;;5.78;4.95;;;;;;;21.75;44.57;99552.84;4883893;28;101489;-82
2021/05/15 06:01:14;;;;;;;8.27;4.55;;;;;;;22.13;43.63;99546.59;4884177;28;101185;-83
2021/05/15 06:03:40;;;;;;;5.03;3.22;;;;;;;22.47;42.35;99550.59;4882697;28;96623;-82
2021/05/15 06:06:05;;;;;;;6.43;3.78;;;;;;;22.75;41.48;99546.13;4900336;28;97287;-80
2021/05/15 06:08:31;;;;;;;6.90;3.53;;;;;;;23.28;42.31;99548.06;4899783;28;98073;-79
2021/05/15 06:10:57;;;;;;;4.20;3.13;;;;;;;23.93;41.12;99553.16;4900703;28;97893;-77
2021/05/15 06:13:22;;;;;;;7.63;3.80;;;;;;;24.29;40.57;99547.66;4899155;28;96665;-87
2021/05/15 06:15:48;;;;;;;12.05;5.47;;;;;;;24.55;38.71;99555.72;4900667;28;96839;-83
2021/05/15 06:18:14;;;;;;;8.95;4.30;;;;;;;24.72;38.09;99549.41;4899035;28;101701;-81
2021/05/15 06:20:39;;;;;;;5.75;4.38;;;;;;;24.62;38.05;99560.28;4898341;28;101137;-81
2021/05/15 06:23:05;;;;;;;4.80;3.42;;;;;;;24.52;38.24;99559.59;4899260;28;96663;-81
2021/05/15 06:25:31;;;;;;;6.13;4.10;;;;;;;24.83;38.07;99562.53;4898736;28;96819;-82
2021/05/15 06:27:57;;;;;;;4.70;3.63;;;;;;;25.02;37.35;99574.03;4883634;28;101541;-82
2021/05/15 06:30:23;;;;;;;4.72;3.42;;;;;;;25.15;36.51;99562.84;4882357;28;101133;-82
2021/05/15 06:32:48;;;;;;;10.68;3.47;;;;;;;25.23;36.70;99561.03;4883946;28;97019;-82
2021/05/15 06:35:14;;;;;;;8.88;3.53;;;;;;;25.22;36.24;99559.34;4884138;28;97172;-82
2021/05/15 06:37:42;;;;;;;9.30;3.90;;;;;;;25.49;36.76;99566.25;4883205;28;101940;-81
2021/05/15 06:40:09;;;;;;;4.72;3.35;;;;;;;25.89;35.63;99558.38;4883496;28;100708;-79
2021/05/15 06:42:35;;;;;;;4.13;3.08;;;;;;;25.52;35.43;99557.03;4882226;28;97170;-80
2021/05/15 06:45:01;;;;;;;4.05;3.55;;;;;;;25.60;35.60;99558.88;4899070;28;97317;-82
2021/05/15 06:47:27;;;;;;;4.97;3.42;;;;;;;25.97;35.42;99551.16;4913423;28;101277;-82
2021/05/15 06:49:52;;;;;;;3.70;3.10;;;;;;;25.81;35.54;99555.69;4890163;28;98394;-83
2021/05/15 06:52:18;;;;;;;4.35;3.33;;;;;;;26.31;34.14;99560.84;4895783;28;96744;-81
2021/05/15 06:54:44;;;;;;;4.82;3.35;;;;;;;26.45;34.23;99555.78;4896579;28;96919;-82
2021/05/15 06:57:10;;;;;;;4.70;3.20;;;;;;;26.56;34.13;99560.81;4880532;28;99901;-83
2021/05/15 06:59:35;;;;;;;4.15;2.88;;;;;;;26.60;33.61;99549.53;4879769;28;101684;-83
2021/05/15 07:02:01;;;;;;;6.47;3.05;;;;;;;27.27;33.56;99557.13;4879994;28;96808;-83
2021/05/15 07:04:27;;;;;;;4.65;2.83;;;;;;;27.80;33.27;99554.53;4895679;28;96507;-82
2021/05/15 07:06:53;;;;;;;6.82;5.65;;;;;;;28.57;31.20;99548.91;4911865;28;98438;-83
2021/05/15 07:09:19;;;;;;;6.03;3.47;;;;;;;28.24;31.21;99548.38;4896137;28;98351;-83
2021/05/15 07:11:44;;;;;;;3.63;2.88;;;;;;;28.24;31.64;99543.00;4879292;28;96679;-81
2021/05/15 07:14:10;;;;;;;12.13;10.77;;;;;;;28.92;30.68;99543.72;4880173;28;96952;-82
2021/05/15 07:16:35;;;;;;;3.85;2.65;;;;;;;27.18;32.80;99535.81;4894357;28;101809;-83
2021/05/15 07:19:01;;;;;;;4.70;3.45;;;;;;;26.54;33.48;99544.00;4864658;28;101039;-85
2021/05/15 07:21:26;;;;;;;3.63;2.78;;;;;;;26.17;33.52;99545.41;4879820;28;96696;-85
2021/05/15 07:23:52;;;;;;;3.10;2.28;;;;;;;25.55;34.51;99547.81;4881709;28;96678;-84
2021/05/15 07:26:18;;;;;;;3.55;2.45;;;;;;;25.51;34.26;99542.75;4880788;28;101503;-83
2021/05/15 07:28:43;;;;;;;2.85;2.10;;;;;;;27.17;32.16;99543.06;4895609;28;98410;-83
2021/05/15 07:31:10;;;;;;;4.05;2.65;;;;;;;27.87;31.69;99541.19;4866039;28;97482;-85
2021/05/15 07:33:37;;;;;;;4.18;2.92;;;;;;;28.99;29.58;99535.69;4880909;28;98461;-84
2021/05/15 07:36:03;;;;;;;2.97;2.28;;;;;;;28.39;30.35;99535.75;4896772;28;101053;-84
2021/05/15 07:38:29;;;;;;;4.43;2.53;;;;;;;29.14;29.47;99533.81;4896292;28;97855;-84
2021/05/15 07:40:55;;;;;;;4.25;2.40;;;;;;;29.75;29.07;99530.69;4896433;28;96798;-84
2021/05/15 07:43:26;;;;;;;3.40;2.03;;;;;;;30.32;27.94;99520.72;4913046;28;96806;-85
2021/05/15 07:45:56;;;;;;;2.55;2.17;;;;;;;31.09;26.58;99525.00;4897782;28;97713;-83
2021/05/15 07:48:44;;;;;;;2.38;2.10;;;;;;;30.31;28.03;99521.72;4896661;28;101293;-83
2021/05/15 07:51:11;;;;;;;2.40;1.85;;;;;;;30.87;27.73;99519.72;4929903;28;96677;-83
2021/05/15 07:53:37;;;;;;;3.15;2.17;;;;;;;31.12;27.17;99511.88;4882220;28;97017;-87
2021/05/15 07:56:05;;;;;;;3.28;2.20;;;;;;;31.37;26.64;99516.75;4883590;28;99614;-84
2021/05/15 07:58:31;;;;;;;2.90;2.28;;;;;;;31.09;27.21;99519.56;4883625;28;100054;-92
2021/05/15 08:00:57;;;;;;;3.63;1.92;;;;;;;31.23;26.92;99526.69;4884969;28;96771;-91
2021/05/15 08:03:23;;;;;;;3.17;2.53;;;;;;;31.58;26.60;99516.53;4884261;28;96867;-87
2021/05/15 08:05:48;;;;;;;3.63;2.28;;;;;;;31.74;26.59;99515.31;4894861;28;101684;-92
2021/05/15 08:08:15;;;;;;;3.40;1.80;;;;;;;32.11;26.31;99513.00;4878222;28;99567;-93
2021/05/15 08:10:42;;;;;;;3.03;2.65;;;;;;;32.78;25.45;99520.94;4878143;28;96754;-83
2021/05/15 08:13:08;;;;;;;8.70;7.10;;;;;;;32.77;25.45;99519.31;4897694;28;97072;-87
2021/05/15 08:15:34;;;;;;;7.03;6.53;;;;;;;32.98;24.49;99523.56;4894482;28;101243;-88
2021/05/15 08:17:59;;;;;;;6.97;6.47;;;;;;;33.55;24.91;99519.91;4879092;28;100770;-88
2021/05/15 08:20:26;;;;;;;8.50;7.88;;;;;;;33.16;25.20;99515.53;4894628;28;97856;-87
2021/05/15 08:22:52;;;;;;;7.85;7.32;;;;;;;33.74;25.06;99509.91;4877574;28;96943;-86
2021/05/15 08:25:19;;;;;;;7.57;6.82;;;;;;;33.80;24.73;99510.91;4895023;28;98202;-87
2021/05/15 08:27:50;;;;;;;7.00;6.43;;;;;;;33.79;24.53;99509.25;4892473;28;97514;-87
2021/05/15 08:30:18;;;;;;;6.38;5.88;;;;;;;33.36;24.26;99512.69;4877113;28;97268;-87
2021/05/15 08:32:51;;;;;;;6.97;6.43;;;;;;;32.90;24.24;99513.78;4897724;28;97254;-87
2021/05/15 08:35:18;;;;;;;6.68;6.18;;;;;;;32.94;24.61;99508.78;4895467;28;101255;-88
2021/05/15 08:37:44;;;;;;;6.07;5.68;;;;;;;33.18;24.21;99512.63;4887554;28;98306;-89
2021/05/15 08:40:10;;;;;;;6.28;5.78;;;;;;;33.43;24.23;99505.34;4913125;28;97301;-88
2021/05/15 08:42:37;;;;;;;6.30;5.85;;;;;;;33.34;24.88;99512.94;4894175;28;97596;-85
2021/05/15 08:45:05;;;;;;;6.15;5.75;;;;;;;33.34;23.93;99517.53;4912156;28;98655;-86
2021/05/15 08:47:31;;;;;;;8.43;6.25;;;;;;;33.34;24.96;99517.53;4895954;28;101286;-83
2021/05/15 08:50:00;;;;;;;6.43;5.97;;;;;;;33.35;24.75;99525.47;4898346;28;97297;-86
2021/05/15 08:52:26;;;;;;;;;;;;;;;32.75;25.06;99524.09;4899144;28;97283;-82
2021/05/15 08:54:52;;;;;;;7.00;6.28;;;;;;;32.40;25.14;99516.25;4881505;28;100814;-85
2021/05/15 08:57:18;;;;;;;6.95;6.25;;;;;;;31.45;26.53;99519.28;4913190;28;97348;-85
2021/05/15 08:59:46;;;;;;;6.63;6.13;;;;;;;30.83;27.10;99512.19;4894972;28;97040;-81
2021/05/15 09:02:13;;;;;;;6.47;5.88;;;;;;;30.18;27.27;99517.88;4878996;28;96963;-85
2021/05/15 09:04:38;;;;;;;6.82;6.32;;;;;;;30.44;27.42;99519.09;4912772;28;98100;-86
2021/05/15 09:07:04;;;;;;;6.72;6.10;;;;;;;28.88;28.44;99524.34;4897260;28;101162;-82
2021/05/15 09:09:30;;;;;;;6.53;6.03;;;;;;;27.81;30.69;99521.19;4896116;28;97353;-83
2021/05/15 09:11:55;;;;;;;6.38;5.88;;;;;;;28.00;29.91;99517.13;4881411;28;97745;-82
2021/05/15 09:14:25;;;;;;;6.70;6.10;;;;;;;28.19;29.45;99524.69;4898742;28;98031;-80
2021/05/15 09:16:52;;;;;;;7.35;6.65;;;;;;;28.87;28.50;99519.97;4885011;28;101379;-79
2021/05/15 09:19:23;;;;;;;6.50;5.90;;;;;;;29.73;28.30;99516.50;4901099;28;96961;-79
2021/05/15 09:22:02;;;;;;;6.50;6.05;;;;;;;29.86;28.36;99515.78;4899669;28;97322;-79
2021/05/15 09:24:36;;;;;;;6.65;6.05;;;;;;;30.55;27.24;99515.00;4896975;28;101857;-79
2021/05/15 09:27:06;;;;;;;5.90;5.50;;;;;;;30.55;26.95;99515.81;4897863;28;98375;-80
2021/05/15 09:29:47;;;;;;;4.93;4.63;;;;;;;30.86;27.03;99511.78;4897034;28;97090;-79
2021/05/15 09:32:14;;;;;;;5.97;5.47;;;;;;;30.84;26.71;99508.47;4896704;28;97141;-78
2021/05/15 09:34:47;;;;;;;5.95;5.50;;;;;;;30.45;26.77;99518.88;4896909;28;101365;-78
2021/05/15 09:37:13;;;;;;;5.75;5.25;;;;;;;30.28;27.33;99503.19;4881021;28;101585;-79
2021/05/15 09:39:39;;;;;;;6.60;5.43;;;;;;;30.49;27.34;99499.56;4880205;28;97233;-79
2021/05/15 09:42:08;;;;;;;5.90;5.40;;;;;;;30.59;27.15;99494.59;4897127;28;96849;-79
2021/05/15 09:44:35;;;;;;;5.30;4.78;;;;;;;29.72;28.30;99496.75;4896460;28;98246;-80
2021/05/15 09:47:03;;;;;;;8.05;7.25;;;;;;;29.42;28.14;99493.34;4881068;28;101145;-78
2021/05/15 09:49:30;;;;;;;5.85;5.35;;;;;;;28.06;29.89;99496.66;4881079;28;97163;-78
2021/05/15 09:52:00;;;;;;;5.97;5.47;;;;;;;28.34;29.13;99496.84;4896883;28;96816;-78
2021/05/15 09:54:36;;;;;;;6.07;5.68;;;;;;;28.64;28.89;99489.59;4881197;28;101358;-78
2021/05/15 09:57:02;;;;;;;5.80;5.30;;;;;;;28.78;29.27;99485.19;4881001;28;101391;-79
2021/05/15 09:59:36;;;;;;;6.25;5.65;;;;;;;28.81;29.14;99484.81;4896054;28;97241;-80
2021/05/15 10:02:10;;;;;;;6.10;5.60;;;;;;;26.93;31.28;99483.91;4880763;28;97015;-78
2021/05/15 10:04:35;;;;;;;2.15;1.90;;;;;;;26.22;32.42;99486.56;4896308;28;101355;-78
2021/05/15 10:07:02;;;;;;;9.13;8.43;;;;;;;26.44;32.12;99490.34;4865138;28;101204;-78
2021/05/15 10:09:32;;;;;;;5.90;5.50;;;;;;;26.99;31.26;99488.56;4865180;28;97411;-80
2021/05/15 10:11:59;;;;;;;7.35;6.70;;;;;;;26.96;31.50;99479.00;4880457;28;96766;-79
2021/05/15 10:14:25;;;;;;;2.05;1.83;;;;;;;26.85;31.54;99477.56;4897207;28;97404;-79
2021/05/15 10:16:51;;;;;;;3.20;2.28;;;;;;;26.24;32.39;99475.63;4880653;28;98092;-80
2021/05/15 10:19:17;;;;;;;2.15;1.95;;;;;;;25.99;32.79;99473.03;4875413;28;96754;-79
2021/05/15 10:21:43;;;;;;;5.72;5.32;;;;;;;25.49;33.57;99471.41;4880034;28;96994;-80
2021/05/15 10:24:23;;;;;;;2.40;1.80;;;;;;;24.58;34.19;99457.00;4896305;28;98609;-78
2021/05/15 10:27:01;;;;;;;3.97;2.10;;;;;;;24.01;35.10;99462.06;4879718;28;101205;-79
2021/05/15 10:29:53;;;;;;;3.35;1.73;;;;;;;23.72;35.65;99462.41;4895859;28;97341;-78
2021/05/15 10:32:22;;;;;;;5.03;2.15;;;;;;;23.73;36.14;99456.03;4891607;28;96869;-79
2021/05/15 10:34:56;;;;;;;3.13;2.03;;;;;;;23.93;34.74;99465.53;4895784;28;97425;-79
2021/05/15 10:37:22;;;;;;;3.67;1.70;;;;;;;23.86;35.45;99447.59;4896636;28;98006;-79
2021/05/15 10:39:49;;;;;;;2.10;1.52;;;;;;;23.79;36.11;99460.75;4892974;28;96989;-77
2021/05/15 10:42:26;;;;;;;4.20;1.83;;;;;;;23.77;36.32;99459.25;4896835;28;96903;-77
2021/05/15 10:44:52;;;;;;;3.22;2.15;;;;;;;23.27;36.72;99458.88;4911304;28;101885;-78
2021/05/15 10:47:21;;;;;;;3.15;2.45;;;;;;;22.82;37.44;99459.75;4880440;28;98350;-78
2021/05/15 10:49:47;;;;;;;2.30;1.85;;;;;;;22.66;37.63;99448.88;4879584;28;97253;-78
2021/05/15 10:52:15;;;;;;;4.22;2.40;;;;;;;22.68;37.30;99438.84;4864552;28;96861;-79
2021/05/15 10:54:59;;;;;;;4.93;2.08;;;;;;;22.64;38.38;99434.81;4879525;28;101141;-77
2021/05/15 10:57:26;;;;;;;5.70;1.80;;;;;;;22.43;37.79;99426.19;4880282;28;101433;-80
2021/05/15 11:00:00;;;;;;;4.20;2.13;;;;;;;22.60;38.34;99428.06;4864054;28;97117;-79
2021/05/15 11:02:33;;;;;;;6.43;1.73;;;;;;;23.07;37.89;99419.00;4895336;28;96969;-79
2021/05/15 11:05:03;;;;;;;3.47;2.10;;;;;;;23.30;38.03;99414.88;4879285;28;101208;-79
2021/05/15 11:07:39;;;;;;;2.53;1.90;;;;;;;23.28;37.29;99419.53;4896287;28;97907;-79
2021/05/15 11:10:08;;;;;;;5.82;1.90;;;;;;;23.37;37.63;99401.69;4896093;28;96806;-77
2021/05/15 11:12:44;;;;;;;7.57;2.50;;;;;;;23.39;36.90;99399.72;4896567;28;96942;-78
2021/05/15 11:15:15;;;;;;;2.55;1.40;;;;;;;23.63;36.50;99399.03;4895688;28;98640;-78
2021/05/15 11:17:42;;;;;;;2.65;1.60;;;;;;;23.88;36.62;99405.38;4894332;28;97502;-78
2021/05/15 11:20:08;;;;;;;1.85;1.50;;;;;;;24.01;35.33;99403.09;4896187;28;96591;-78
2021/05/15 11:22:35;;;;;;;3.25;1.20;;;;;;;24.02;34.91;99399.41;4880006;28;97097;-77
2021/05/15 11:25:02;;;;;;;2.03;1.23;;;;;;;23.80;35.55;99400.84;4879045;28;101119;-78
2021/05/15 11:27:29;;;;;;;2.88;1.55;;;;;;;23.53;35.95;99393.75;4879959;28;98413;-78
2021/05/15 11:30:10;;;;;;;2.08;1.25;;;;;;;23.50;36.27;99383.38;4895039;28;97143;-78
2021/05/15 11:32:36;;;;;;;3.00;1.60;;;;;;;23.82;36.36;99385.41;4880311;28;96774;-78